Time;durP1;ratioP1;P1;durP2;ratioP2;P2;SDS_P1;SDS_P2;PMS_P1;PMS_P2;Temp;Humidity;BMP_temperature;BMP_pressure;BME280_temperature;BME280_humidity;BME280_pressure;Samples;Min_cycle;Max_cycle;Signal;HPM_P1;HPM_P2
2022/09/01 00:00:27;;;;;;;10.25;9.25;;;17.80;79.40;;;;;;5031825;28;20033;-61
2022/09/01 00:02:54;;;;;;;13.35;9.38;;;17.80;79.50;;;;;;5026006;28;20526;-62
2022/09/01 00:05:20;;;;;;;12.20;9.13;;;17.80;79.50;;;;;;5028452;28;20060;-62
2022/09/01 00:07:47;;;;;;;10.75;9.65;;;17.70;79.60;;;;;;5027181;28;20037;-62
2022/09/01 00:10:13;;;;;;;11.55;10.35;;;17.70;79.80;;;;;;5028989;28;20041;-62
2022/09/01 00:12:39;;;;;;;12.45;10.13;;;17.70;80.10;;;;;;5028479;28;20045;-62
2022/09/01 00:15:07;;;;;;;12.07;10.25;;;17.70;80.20;;;;;;5031233;28;20041;-62
2022/09/01 00:17:33;;;;;;;13.93;10.68;;;17.70;80.40;;;;;;5031813;28;20500;-61
2022/09/01 00:19:59;;;;;;;11.73;10.52;;;17.70;80.60;;;;;;5033510;28;20086;-62
2022/09/01 00:22:24;;;;;;;12.02;10.73;;;17.70;80.80;;;;;;5032395;28;20033;-62
2022/09/01 00:24:50;;;;;;;13.07;10.90;;;17.70;80.80;;;;;;5032842;28;20068;-61
2022/09/01 00:27:16;;;;;;;11.38;10.15;;;17.70;81.00;;;;;;5033556;28;20056;-61
2022/09/01 00:29:42;;;;;;;13.50;10.88;;;17.70;81.10;;;;;;5033259;28;20068;-61
2022/09/01 00:32:08;;;;;;;12.57;10.70;;;17.70;81.20;;;;;;5028494;28;20037;-61
2022/09/01 00:34:33;;;;;;;14.00;11.00;;;17.70;81.20;;;;;;5033845;28;20087;-61
2022/09/01 00:36:59;;;;;;;13.70;10.02;;;17.70;81.20;;;;;;5035665;28;20030;-59
2022/09/01 00:39:25;;;;;;;11.13;9.77;;;17.60;81.20;;;;;;5036037;28;20047;-60
2022/09/01 00:41:51;;;;;;;13.23;10.32;;;17.60;81.40;;;;;;5030747;28;20112;-61
2022/09/01 00:44:22;;;;;;;14.52;10.55;;;17.60;81.50;;;;;;5031989;28;20065;-62
2022/09/01 00:46:50;;;;;;;11.35;10.18;;;17.50;81.50;;;;;;5030928;28;20120;-62
2022/09/01 00:49:20;;;;;;;11.55;10.35;;;17.50;81.50;;;;;;5030829;28;20528;-61
2022/09/01 00:51:50;;;;;;;11.48;10.30;;;17.50;81.70;;;;;;5030637;28;20067;-60
2022/09/01 00:54:20;;;;;;;13.07;11.55;;;17.60;81.80;;;;;;5033326;28;20041;-62
2022/09/01 00:56:46;;;;;;;13.68;11.90;;;17.50;82.00;;;;;;5031635;28;20086;-62
2022/09/01 00:59:14;;;;;;;11.80;10.60;;;17.50;82.00;;;;;;5031787;28;20033;-61
2022/09/01 01:01:39;;;;;;;15.07;12.90;;;17.50;81.80;;;;;;5030520;28;20942;-62
2022/09/01 01:04:16;;;;;;;14.25;12.60;;;17.50;81.80;;;;;;5030404;28;20048;-62
2022/09/01 01:06:57;;;;;;;14.68;12.90;;;17.50;82.00;;;;;;5031593;28;20065;-62
2022/09/01 01:09:25;;;;;;;17.27;13.25;;;17.40;82.60;;;;;;5034429;28;20037;-62
2022/09/01 01:11:52;;;;;;;18.17;13.95;;;17.40;83.40;;;;;;5031949;28;20816;-61
2022/09/01 01:14:18;;;;;;;19.10;14.32;;;17.30;82.90;;;;;;5033309;28;20034;-62
2022/09/01 01:16:47;;;;;;;19.65;15.00;;;17.30;83.10;;;;;;5023981;28;20651;-62
2022/09/01 01:25:00;;;;;;;18.40;14.68;;;17.30;83.60;;;;;;5031978;28;20519;-62
2022/09/01 01:27:31;;;;;;;18.42;15.57;;;17.30;83.60;;;;;;5027942;28;20053;-61
2022/09/01 01:29:56;;;;;;;22.25;16.80;;;17.30;84.00;;;;;;5033413;28;20562;-62
2022/09/01 01:32:22;;;;;;;20.88;16.58;;;17.30;83.80;;;;;;5032147;28;20049;-62
2022/09/01 01:34:48;;;;;;;19.50;15.70;;;17.30;83.90;;;;;;5031505;28;20128;-60
2022/09/01 01:37:14;;;;;;;17.98;14.68;;;17.40;84.00;;;;;;5030147;28;20037;-62
2022/09/01 01:39:41;;;;;;;18.00;15.90;;;17.40;84.00;;;;;;5028135;28;20769;-61
2022/09/01 01:42:08;;;;;;;19.98;16.55;;;17.40;84.00;;;;;;5031928;28;20052;-62
2022/09/01 01:44:37;;;;;;;21.65;16.35;;;17.50;84.00;;;;;;5030498;28;20033;-62
2022/09/01 01:47:07;;;;;;;18.58;15.45;;;17.50;84.00;;;;;;5031734;28;20064;-62
2022/09/01 01:49:34;;;;;;;20.88;17.17;;;17.50;84.00;;;;;;5033897;28;20040;-62
2022/09/01 01:52:00;;;;;;;19.25;16.50;;;17.50;83.90;;;;;;5030094;28;20095;-62
2022/09/01 01:54:31;;;;;;;20.05;16.77;;;17.50;83.90;;;;;;5032997;28;20037;-62
2022/09/01 01:57:03;;;;;;;22.50;17.15;;;17.60;83.90;;;;;;5030496;28;20663;-62
2022/09/01 01:59:28;;;;;;;20.92;16.25;;;17.60;83.90;;;;;;5033789;28;20033;-61
2022/09/01 02:01:55;;;;;;;21.10;16.63;;;17.60;83.90;;;;;;5029263;28;20059;-56
2022/09/01 02:04:21;;;;;;;20.27;16.45;;;17.60;83.90;;;;;;5032758;28;20041;-62
2022/09/01 02:06:48;;;;;;;21.98;16.88;;;17.60;83.90;;;;;;5028750;28;20507;-62
2022/09/01 02:09:16;;;;;;;20.33;16.40;;;17.60;84.00;;;;;;5034275;28;20060;-62
2022/09/01 02:11:44;;;;;;;19.88;16.63;;;17.60;84.00;;;;;;5025638;28;20065;-62
2022/09/01 02:14:12;;;;;;;20.35;16.55;;;17.60;84.00;;;;;;5032321;28;20107;-62
2022/09/01 02:16:38;;;;;;;19.50;16.70;;;17.60;83.90;;;;;;5028223;28;20116;-62
2022/09/01 02:19:07;;;;;;;19.65;16.00;;;17.70;83.80;;;;;;5032024;28;20038;-61
2022/09/01 02:21:33;;;;;;;21.25;15.35;;;17.60;83.90;;;;;;5031777;28;20108;-62
2022/09/01 02:24:07;;;;;;;19.08;16.75;;;17.70;83.80;;;;;;5033219;28;21080;-61
2022/09/01 02:26:46;;;;;;;20.92;17.55;;;17.70;83.90;;;;;;5031798;28;20034;-61
2022/09/01 02:29:20;;;;;;;21.20;16.27;;;17.70;84.00;;;;;;5032955;28;20037;-62
2022/09/01 02:31:49;;;;;;;19.38;16.45;;;17.70;83.60;;;;;;5029619;28;20047;-61
2022/09/01 02:34:15;;;;;;;19.65;16.30;;;17.80;83.60;;;;;;5033536;28;20038;-62
2022/09/01 02:36:46;;;;;;;21.00;17.40;;;17.80;83.60;;;;;;5032432;28;20158;-62
2022/09/01 02:39:22;;;;;;;18.23;16.05;;;17.80;83.60;;;;;;5030162;28;20116;-61
2022/09/01 02:41:49;;;;;;;19.83;16.75;;;17.70;83.60;;;;;;5029815;28;20037;-62
2022/09/01 02:44:15;;;;;;;19.90;17.17;;;17.70;83.60;;;;;;5031527;28;20041;-62
2022/09/01 02:46:43;;;;;;;21.25;16.48;;;17.80;83.80;;;;;;5028078;28;20029;-62
2022/09/01 02:49:16;;;;;;;21.65;17.85;;;17.80;84.00;;;;;;5031493;28;20417;-62
2022/09/01 02:51:43;;;;;;;20.48;17.30;;;17.80;83.80;;;;;;5030099;28;20036;-62
2022/09/01 02:54:10;;;;;;;21.38;18.33;;;17.80;83.70;;;;;;5031694;28;20044;-61
2022/09/01 02:56:35;;;;;;;22.30;18.65;;;17.80;83.70;;;;;;5032883;28;20050;-61
2022/09/01 02:59:02;;;;;;;22.90;18.45;;;17.80;83.70;;;;;;5027412;28;20684;-60
2022/09/01 03:01:30;;;;;;;25.20;19.10;;;17.80;83.70;;;;;;5031640;28;20048;-62
2022/09/01 03:04:04;;;;;;;23.95;19.33;;;17.80;83.70;;;;;;5028303;28;20041;-60
2022/09/01 03:06:33;;;;;;;23.92;18.83;;;17.80;83.70;;;;;;5032310;28;20095;-61
2022/09/01 03:08:59;;;;;;;21.88;18.55;;;17.80;83.50;;;;;;5029023;28;20036;-61
2022/09/01 03:11:28;;;;;;;24.73;18.17;;;17.80;83.60;;;;;;5027202;28;20405;-62
2022/09/01 03:13:54;;;;;;;21.10;18.02;;;17.80;83.60;;;;;;5034886;28;20551;-62
2022/09/01 03:16:21;;;;;;;20.80;17.08;;;17.70;83.60;;;;;;5034355;28;20039;-61
2022/09/01 03:18:48;;;;;;;22.00;18.70;;;17.70;83.80;;;;;;5034075;28;20068;-61
2022/09/01 03:21:15;;;;;;;21.45;18.33;;;17.70;83.80;;;;;;5033658;28;20529;-62
2022/09/01 03:23:43;;;;;;;19.60;17.10;;;17.70;83.80;;;;;;5033294;28;20048;-62
2022/09/01 03:26:09;;;;;;;20.20;17.83;;;17.70;83.80;;;;;;5033123;28;20417;-62
2022/09/01 03:28:36;;;;;;;18.50;16.50;;;17.70;84.00;;;;;;5030527;28;20056;-62
2022/09/01 03:31:02;;;;;;;19.92;16.60;;;17.70;84.10;;;;;;5027618;28;20036;-61
2022/09/01 03:33:28;;;;;;;20.92;17.60;;;17.70;84.10;;;;;;5026907;28;20033;-61
2022/09/01 03:35:55;;;;;;;22.55;18.42;;;17.70;84.00;;;;;;5031202;28;20029;-62
2022/09/01 03:38:23;;;;;;;21.33;18.08;;;17.80;84.10;;;;;;5030928;28;20902;-62
2022/09/01 03:40:57;;;;;;;21.23;17.38;;;17.80;84.10;;;;;;5027395;28;20091;-62
2022/09/01 03:43:26;;;;;;;22.88;18.80;;;17.80;84.10;;;;;;5027417;28;20443;-62
2022/09/01 03:45:54;;;;;;;22.65;18.20;;;17.80;83.90;;;;;;5027615;28;20051;-62
2022/09/01 03:48:21;;;;;;;20.95;17.38;;;17.80;83.90;;;;;;5028559;28;20059;-62
2022/09/01 03:50:48;;;;;;;22.67;17.98;;;17.80;84.00;;;;;;5028505;28;20060;-62
2022/09/01 03:53:17;;;;;;;22.67;18.58;;;17.80;84.00;;;;;;5028990;28;20037;-62
2022/09/01 03:55:44;;;;;;;22.23;18.33;;;17.80;84.00;;;;;;5028582;28;20029;-62
2022/09/01 03:58:13;;;;;;;22.10;18.25;;;17.80;84.00;;;;;;5029124;28;20040;-62
2022/09/01 04:00:42;;;;;;;20.98;17.75;;;17.80;84.00;;;;;;5026850;28;20037;-62
2022/09/01 04:03:11;;;;;;;22.13;17.08;;;17.80;84.10;;;;;;5028032;28;20124;-62
2022/09/01 04:05:39;;;;;;;19.92;17.02;;;17.80;84.10;;;;;;5030409;28;20037;-61
2022/09/01 04:08:09;;;;;;;21.25;17.45;;;17.80;84.10;;;;;;5032032;28;20099;-60
2022/09/01 04:10:48;;;;;;;19.55;16.83;;;17.80;84.10;;;;;;5024288;28;20252;-62
2022/09/01 04:13:18;;;;;;;21.38;17.63;;;17.80;84.10;;;;;;5027854;28;20043;-62
2022/09/01 04:15:44;;;;;;;21.45;17.55;;;17.80;84.10;;;;;;5029018;28;20558;-59
2022/09/01 04:18:19;;;;;;;20.45;17.10;;;17.80;84.10;;;;;;5031461;28;20133;-62
2022/09/01 04:20:52;;;;;;;21.23;17.77;;;17.80;84.10;;;;;;5030686;28;20428;-62
2022/09/01 04:23:28;;;;;;;21.40;17.77;;;17.80;84.00;;;;;;5030346;28;20029;-61
2022/09/01 04:26:07;;;;;;;21.20;17.27;;;17.80;84.00;;;;;;5025281;28;20489;-62
2022/09/01 04:28:44;;;;;;;22.25;17.55;;;17.80;84.10;;;;;;5027704;28;20144;-61
2022/09/01 04:31:17;;;;;;;21.05;17.13;;;17.70;83.90;;;;;;5025562;28;20103;-62
2022/09/01 04:33:45;;;;;;;19.50;16.67;;;17.70;84.10;;;;;;5034202;28;20107;-61
2022/09/01 04:36:13;;;;;;;23.50;17.45;;;17.80;85.00;;;;;;5032712;28;20527;-61
2022/09/01 04:38:39;;;;;;;19.67;16.83;;;17.70;84.30;;;;;;5033339;28;20037;-62
2022/09/01 04:41:08;;;;;;;20.80;16.88;;;17.70;84.30;;;;;;5030587;28;22211;-62
2022/09/01 04:43:34;;;;;;;18.13;15.98;;;17.70;84.50;;;;;;5032932;28;20585;-62
2022/09/01 04:46:02;;;;;;;17.95;15.95;;;17.70;84.30;;;;;;5034358;28;20083;-63
2022/09/01 04:48:28;;;;;;;19.52;16.52;;;17.70;84.30;;;;;;5031615;28;20037;-62
2022/09/01 04:50:55;;;;;;;19.55;15.95;;;17.80;84.30;;;;;;5030431;28;20036;-62
2022/09/01 04:53:23;;;;;;;20.10;16.70;;;17.80;84.30;;;;;;5034647;28;20061;-62
2022/09/01 04:55:54;;;;;;;19.08;15.98;;;17.80;84.30;;;;;;5034249;28;20037;-62
2022/09/01 04:58:20;;;;;;;19.25;16.20;;;17.80;84.20;;;;;;5031336;28;20033;-62
2022/09/01 05:00:50;;;;;;;21.00;16.50;;;17.80;84.10;;;;;;5031906;28;20051;-62
2022/09/01 05:03:20;;;;;;;22.20;16.70;;;17.80;84.00;;;;;;5028097;28;20069;-62
2022/09/01 05:05:46;;;;;;;19.70;16.30;;;17.80;83.90;;;;;;5033480;28;20074;-62
2022/09/01 05:08:15;;;;;;;19.63;16.95;;;17.80;83.80;;;;;;5031312;28;20465;-62
2022/09/01 05:10:43;;;;;;;21.25;15.75;;;17.80;83.80;;;;;;5031048;28;20029;-62
2022/09/01 05:13:11;;;;;;;20.30;16.85;;;17.80;83.80;;;;;;5030572;28;20042;-62
2022/09/01 05:15:46;;;;;;;17.35;15.38;;;17.80;83.70;;;;;;5035868;28;20044;-62
2022/09/01 05:18:22;;;;;;;18.63;16.00;;;17.80;83.80;;;;;;5034992;28;20041;-62
2022/09/01 05:20:49;;;;;;;19.10;15.88;;;17.80;84.00;;;;;;5038377;28;20120;-62
2022/09/01 05:23:18;;;;;;;16.95;14.82;;;17.80;84.00;;;;;;5037142;28;20036;-62
2022/09/01 05:25:47;;;;;;;17.73;15.02;;;17.80;84.00;;;;;;5033758;28;20033;-62
2022/09/01 05:28:16;;;;;;;17.02;14.50;;;17.80;84.00;;;;;;5035710;28;20135;-62
2022/09/01 05:30:44;;;;;;;16.60;14.55;;;17.80;83.80;;;;;;5036579;28;20449;-62
2022/09/01 05:33:15;;;;;;;15.18;13.57;;;17.90;84.00;;;;;;5037058;28;20116;-61
2022/09/01 05:35:50;;;;;;;14.40;12.90;;;17.80;83.80;;;;;;5036882;28;20034;-62
2022/09/01 05:38:17;;;;;;;12.85;11.50;;;17.90;83.70;;;;;;5035900;28;20068;-62
2022/09/01 05:40:43;;;;;;;12.35;11.05;;;17.90;83.30;;;;;;5035442;28;20040;-62
2022/09/01 05:43:12;;;;;;;12.50;11.20;;;17.90;83.10;;;;;;5035968;28;20414;-62
2022/09/01 05:45:42;;;;;;;13.65;12.10;;;17.90;83.10;;;;;;5036088;28;20122;-62
2022/09/01 05:48:11;;;;;;;14.30;11.85;;;18.00;83.20;;;;;;5034282;28;20044;-62
2022/09/01 05:50:41;;;;;;;13.60;11.77;;;18.00;83.20;;;;;;5035576;28;20033;-62
2022/09/01 05:53:16;;;;;;;12.48;11.18;;;17.90;83.10;;;;;;5034389;28;20049;-62
2022/09/01 05:55:45;;;;;;;12.98;11.27;;;18.00;83.00;;;;;;5035543;28;20540;-62
2022/09/01 05:58:15;;;;;;;15.25;12.32;;;18.00;83.00;;;;;;5038688;28;20076;-62
2022/09/01 06:00:46;;;;;;;15.07;12.73;;;18.00;83.00;;;;;;5034226;28;20025;-62
2022/09/01 06:03:13;;;;;;;15.65;14.05;;;18.00;83.20;;;;;;5036170;28;20041;-62
2022/09/01 06:05:39;;;;;;;15.90;13.57;;;18.00;83.40;;;;;;5036286;28;20029;-62
2022/09/01 06:08:07;;;;;;;16.50;14.30;;;18.00;83.60;;;;;;5033962;28;20383;-62
2022/09/01 06:10:36;;;;;;;16.25;13.90;;;18.00;83.60;;;;;;5033354;28;20462;-60
2022/09/01 06:13:02;;;;;;;16.42;14.68;;;18.00;83.80;;;;;;5034743;28;20481;-62
2022/09/01 06:15:31;;;;;;;15.35;12.65;;;18.00;83.90;;;;;;5035062;28;20124;-60
2022/09/01 06:17:58;;;;;;;14.52;12.88;;;18.00;83.80;;;;;;5035402;28;20025;-62
2022/09/01 06:20:24;;;;;;;14.32;12.32;;;18.00;84.00;;;;;;5034958;28;20040;-62
2022/09/01 06:22:51;;;;;;;13.75;12.05;;;18.10;84.00;;;;;;5037229;28;20083;-61
2022/09/01 06:25:17;;;;;;;15.18;12.38;;;18.10;84.00;;;;;;5033635;28;20582;-61
2022/09/01 06:27:44;;;;;;;14.90;12.50;;;18.10;84.10;;;;;;5037075;28;20040;-62
2022/09/01 06:30:16;;;;;;;13.80;12.32;;;18.10;84.00;;;;;;5035524;28;20512;-62
2022/09/01 06:32:43;;;;;;;13.82;12.07;;;18.20;83.80;;;;;;5034907;28;20060;-62
2022/09/01 06:35:14;;;;;;;16.02;12.65;;;18.20;83.70;;;;;;5036950;28;20041;-62
2022/09/01 06:37:44;;;;;;;13.00;11.45;;;18.20;83.30;;;;;;5035552;28;20045;-61
2022/09/01 06:40:16;;;;;;;12.65;11.30;;;18.20;83.20;;;;;;5035858;28;20044;-61
2022/09/01 06:42:50;;;;;;;13.70;11.18;;;18.30;83.20;;;;;;5034572;28;20452;-61
2022/09/01 06:45:19;;;;;;;12.18;10.95;;;18.30;82.90;;;;;;5034446;28;20056;-61
2022/09/01 06:47:46;;;;;;;12.27;10.95;;;18.30;82.70;;;;;;5034801;28;20219;-61
2022/09/01 06:50:14;;;;;;;12.80;11.35;;;18.30;82.70;;;;;;5036575;28;20033;-62
2022/09/01 06:52:43;;;;;;;10.80;9.70;;;18.30;82.60;;;;;;5035550;28;20552;-62
2022/09/01 06:55:13;;;;;;;10.63;9.57;;;18.40;82.60;;;;;;5035976;28;20051;-60
2022/09/01 06:57:41;;;;;;;10.68;9.57;;;18.40;82.50;;;;;;5034074;28;20055;-61
2022/09/01 07:00:16;;;;;;;9.73;8.48;;;18.40;82.40;;;;;;5033808;28;20036;-62
2022/09/01 07:02:47;;;;;;;9.60;8.70;;;18.40;81.80;;;;;;5033537;28;20175;-61
2022/09/01 07:05:20;;;;;;;9.13;8.23;;;18.50;81.40;;;;;;5035127;28;20512;-62
2022/09/01 07:07:50;;;;;;;8.60;7.80;;;18.50;81.30;;;;;;5035611;28;20737;-62
2022/09/01 07:10:21;;;;;;;9.23;8.32;;;18.50;81.10;;;;;;5031763;28;20041;-62
2022/09/01 07:12:48;;;;;;;8.82;7.93;;;18.60;81.00;;;;;;5031349;28;20037;-62
2022/09/01 07:15:15;;;;;;;9.20;8.20;;;18.60;80.60;;;;;;5033622;28;20050;-62
2022/09/01 07:17:47;;;;;;;8.23;7.43;;;18.60;80.30;;;;;;5031715;28;20060;-62
2022/09/01 07:20:14;;;;;;;8.00;7.20;;;18.60;80.20;;;;;;5032954;28;20045;-62
2022/09/01 07:22:40;;;;;;;9.75;7.65;;;18.60;80.30;;;;;;5034484;28;20045;-61
2022/09/01 07:25:06;;;;;;;8.63;7.75;;;18.70;80.20;;;;;;5034041;28;20257;-61
2022/09/01 07:27:32;;;;;;;8.73;7.60;;;18.70;80.10;;;;;;5033017;28;20500;-62
2022/09/01 07:29:58;;;;;;;7.70;6.90;;;18.70;80.00;;;;;;5034373;28;20128;-62
2022/09/01 07:32:23;;;;;;;9.48;7.20;;;18.70;79.50;;;;;;5033592;28;20040;-62
2022/09/01 07:34:51;;;;;;;7.65;6.88;;;18.80;79.40;;;;;;5035591;28;20037;-62
2022/09/01 07:37:17;;;;;;;7.78;6.72;;;18.80;79.40;;;;;;5031386;28;20139;-62
2022/09/01 07:39:45;;;;;;;8.05;7.25;;;18.80;79.50;;;;;;5034169;28;20405;-61
2022/09/01 07:42:11;;;;;;;8.00;6.97;;;18.80;79.30;;;;;;5034488;28;20064;-62
2022/09/01 07:44:37;;;;;;;7.50;6.80;;;18.90;80.00;;;;;;5032710;28;20540;-61
2022/09/01 07:47:07;;;;;;;9.73;7.20;;;18.90;78.90;;;;;;5032356;28;20033;-61
2022/09/01 07:49:33;;;;;;;7.45;6.70;;;18.90;78.70;;;;;;5033629;28;20041;-63
2022/09/01 07:52:00;;;;;;;6.68;6.05;;;18.90;78.70;;;;;;5030577;28;20252;-62
2022/09/01 07:54:26;;;;;;;7.13;6.43;;;19.00;78.70;;;;;;5032896;28;20065;-62
2022/09/01 07:56:54;;;;;;;7.68;6.85;;;19.00;78.70;;;;;;5034180;28;20072;-62
2022/09/01 07:59:20;;;;;;;6.97;6.28;;;19.10;78.60;;;;;;5037070;28;20099;-62
2022/09/01 08:01:46;;;;;;;9.70;6.97;;;19.10;78.50;;;;;;5028112;28;20045;-62
2022/09/01 08:04:11;;;;;;;7.82;7.03;;;19.10;78.40;;;;;;5030023;28;20033;-61
2022/09/01 08:06:37;;;;;;;7.70;6.97;;;19.10;78.20;;;;;;5033997;28;20428;-62
2022/09/01 08:09:06;;;;;;;7.40;6.70;;;19.20;78.10;;;;;;5032595;28;20497;-62
2022/09/01 08:11:32;;;;;;;7.15;6.47;;;19.20;78.70;;;;;;5029666;28;20412;-62
2022/09/01 08:13:59;;;;;;;7.38;6.68;;;19.30;78.00;;;;;;5035125;28;20037;-62
2022/09/01 08:16:27;;;;;;;7.13;6.45;;;19.30;77.80;;;;;;5035446;28;20091;-62
2022/09/01 08:18:53;;;;;;;7.07;6.40;;;19.30;77.70;;;;;;5033538;28;20041;-62
2022/09/01 08:21:22;;;;;;;6.93;6.00;;;19.30;77.70;;;;;;5036012;28;20044;-62
2022/09/01 08:23:50;;;;;;;6.95;6.25;;;19.40;77.50;;;;;;5031481;28;20095;-62
2022/09/01 08:26:20;;;;;;;7.55;6.55;;;19.40;77.30;;;;;;5034882;28;20068;-61
2022/09/01 08:28:46;;;;;;;10.82;6.30;;;19.40;77.20;;;;;;5032436;28;20048;-62
2022/09/01 08:31:16;;;;;;;6.88;6.20;;;19.50;77.20;;;;;;5031985;28;20075;-63
2022/09/01 08:33:44;;;;;;;7.43;6.65;;;19.50;77.10;;;;;;5031074;28;20037;-62
2022/09/01 08:36:11;;;;;;;8.10;6.65;;;19.60;77.10;;;;;;5035359;28;20544;-62
2022/09/01 08:38:38;;;;;;;10.35;6.22;;;19.60;76.50;;;;;;5033513;28;20477;-62
2022/09/01 08:41:25;;;;;;;8.77;6.30;;;19.60;76.10;;;;;;5031115;28;20037;-62
2022/09/01 08:43:54;;;;;;;9.13;6.22;;;19.60;76.00;;;;;;5032065;28;20033;-63
2022/09/01 08:46:27;;;;;;;9.18;5.78;;;19.70;76.20;;;;;;5033684;28;20393;-63
2022/09/01 08:48:56;;;;;;;12.93;5.45;;;19.70;76.30;;;;;;5033262;28;20029;-62
2022/09/01 08:51:30;;;;;;;6.28;5.63;;;19.70;76.30;;;;;;5031456;28;20033;-62
2022/09/01 08:54:11;;;;;;;6.20;5.65;;;19.80;76.30;;;;;;5033375;28;20040;-63
2022/09/01 08:56:38;;;;;;;6.00;5.40;;;19.90;75.80;;;;;;5033229;28;20040;-62
2022/09/01 08:59:08;;;;;;;6.70;5.95;;;19.90;76.00;;;;;;5033501;28;20064;-63
2022/09/01 09:01:54;;;;;;;6.43;5.68;;;19.90;75.40;;;;;;5032383;28;20044;-62
2022/09/01 09:04:48;;;;;;;5.90;5.32;;;20.00;74.50;;;;;;5034707;28;20045;-62
2022/09/01 09:07:22;;;;;;;5.70;5.22;;;20.00;74.80;;;;;;5035738;28;20045;-60
2022/09/01 09:10:01;;;;;;;6.07;5.57;;;20.10;75.30;;;;;;5033150;28;20504;-61
2022/09/01 09:12:42;;;;;;;5.63;5.13;;;20.10;74.50;;;;;;5030824;28;20041;-62
2022/09/01 09:15:17;;;;;;;6.10;5.50;;;20.20;74.60;;;;;;5032888;28;20044;-62
2022/09/01 09:17:58;;;;;;;5.20;4.75;;;20.30;74.40;;;;;;5033713;28;20037;-62
2022/09/01 09:20:26;;;;;;;6.95;5.82;;;20.30;74.30;;;;;;5031960;28;20116;-62
2022/09/01 09:22:53;;;;;;;6.93;6.22;;;20.30;74.20;;;;;;5032269;28;20401;-62
2022/09/01 09:25:19;;;;;;;6.25;5.65;;;20.40;73.90;;;;;;5033057;28;20038;-63
2022/09/01 09:27:47;;;;;;;7.85;5.65;;;20.40;73.80;;;;;;5033526;28;20045;-62
2022/09/01 09:30:27;;;;;;;5.82;5.20;;;20.40;73.60;;;;;;5032016;28;20029;-63
2022/09/01 09:33:16;;;;;;;4.85;4.35;;;20.50;72.90;;;;;;5033040;28;20122;-62
2022/09/01 09:35:44;;;;;;;4.35;3.95;;;20.50;73.70;;;;;;5029714;28;20544;-63
2022/09/01 09:38:21;;;;;;;4.93;4.50;;;20.60;73.60;;;;;;5034644;28;20045;-62
2022/09/01 09:41:05;;;;;;;5.38;3.83;;;20.60;72.70;;;;;;5030675;28;20520;-61
2022/09/01 09:43:57;;;;;;;4.70;4.30;;;20.70;72.30;;;;;;5034974;28;20033;-63
2022/09/01 09:46:31;;;;;;;4.15;3.80;;;20.80;71.60;;;;;;5015327;28;20034;-60
2022/09/01 09:49:27;;;;;;;4.40;4.00;;;20.90;72.10;;;;;;5014742;28;20044;-62
2022/09/01 09:52:01;;;;;;;3.90;3.60;;;20.90;70.90;;;;;;5009713;28;20060;-63
2022/09/01 09:54:32;;;;;;;4.30;4.00;;;20.90;71.00;;;;;;5012779;28;20079;-63
2022/09/01 09:57:14;;;;;;;4.30;3.90;;;21.00;70.40;;;;;;5013814;28;20045;-63
2022/09/01 09:59:52;;;;;;;4.20;3.90;;;21.00;69.30;;;;;;5013745;28;20046;-63
2022/09/01 10:02:33;;;;;;;3.80;3.50;;;21.00;70.50;;;;;;5017834;28;20447;-63
2022/09/01 10:05:10;;;;;;;4.18;3.80;;;21.00;69.80;;;;;;5035008;28;20041;-63
2022/09/01 10:07:36;;;;;;;4.90;3.60;;;21.00;70.20;;;;;;5036390;28;20044;-63
2022/09/01 10:10:07;;;;;;;3.88;3.58;;;21.00;70.20;;;;;;5036124;28;20087;-62
2022/09/01 10:12:33;;;;;;;4.30;4.00;;;21.10;69.70;;;;;;5033617;28;20034;-63
2022/09/01 10:15:05;;;;;;;4.00;3.70;;;21.10;69.80;;;;;;5036462;28;20037;-62
2022/09/01 10:17:41;;;;;;;4.35;4.05;;;21.10;69.30;;;;;;5037797;28;20037;-62
2022/09/01 10:20:27;;;;;;;4.60;4.20;;;21.20;69.10;;;;;;5035773;28;20061;-63
2022/09/01 10:22:53;;;;;;;3.88;3.60;;;21.20;68.90;;;;;;5034248;28;20033;-62
2022/09/01 10:25:24;;;;;;;4.35;3.95;;;21.30;70.00;;;;;;5035853;28;20106;-62
2022/09/01 10:28:13;;;;;;;4.10;3.75;;;21.40;69.20;;;;;;5036296;28;20030;-62
2022/09/01 10:30:42;;;;;;;4.78;4.22;;;21.40;68.30;;;;;;5014149;28;20037;-62
2022/09/01 10:33:09;;;;;;;4.43;4.03;;;21.40;68.90;;;;;;5016554;28;20037;-62
2022/09/01 10:35:38;;;;;;;4.38;4.00;;;21.50;68.50;;;;;;5016600;28;20092;-62
2022/09/01 10:38:08;;;;;;;5.03;4.63;;;21.50;68.30;;;;;;5016287;28;20486;-63
2022/09/01 10:40:39;;;;;;;4.28;3.95;;;21.50;68.30;;;;;;5013470;28;20041;-63
2022/09/01 10:43:26;;;;;;;4.82;4.43;;;21.60;68.00;;;;;;5014538;28;20057;-62
2022/09/01 10:45:52;;;;;;;4.10;3.80;;;21.60;66.70;;;;;;5015731;28;20125;-62
2022/09/01 10:48:32;;;;;;;4.18;3.88;;;21.60;68.00;;;;;;5016243;28;20079;-63
2022/09/01 10:51:30;;;;;;;3.70;3.40;;;21.70;67.70;;;;;;5016059;28;20460;-63
2022/09/01 10:53:57;;;;;;;3.83;3.50;;;21.80;67.10;;;;;;5024411;28;20045;-62
2022/09/01 10:56:40;;;;;;;4.53;3.80;;;21.80;67.80;;;;;;5016486;28;20100;-63
2022/09/01 10:59:21;;;;;;;4.47;4.07;;;21.90;66.70;;;;;;5016710;28;20111;-62
2022/09/01 11:01:47;;;;;;;4.18;3.63;;;22.00;66.00;;;;;;5013966;28;20041;-62
2022/09/01 11:04:22;;;;;;;3.80;3.50;;;22.00;66.80;;;;;;5016455;28;20041;-63
2022/09/01 11:07:07;;;;;;;3.55;3.28;;;22.10;65.50;;;;;;5014901;28;20030;-62
2022/09/01 11:09:44;;;;;;;3.50;3.22;;;22.10;66.40;;;;;;5015688;28;20084;-63
2022/09/01 11:12:13;;;;;;;3.67;3.38;;;22.10;65.40;;;;;;5013336;28;20417;-63
2022/09/01 11:15:11;;;;;;;3.90;3.17;;;22.10;65.90;;;;;;5015036;28;20042;-62
2022/09/01 11:17:53;;;;;;;4.60;4.20;;;22.10;64.50;;;;;;5017004;28;20069;-62
2022/09/01 11:20:23;;;;;;;3.88;3.58;;;22.20;65.20;;;;;;5014658;28;20037;-62
2022/09/01 11:23:18;;;;;;;3.72;3.42;;;22.20;64.70;;;;;;5012947;28;20076;-63
2022/09/01 11:25:55;;;;;;;3.50;3.20;;;22.20;63.30;;;;;;5013251;28;20465;-62
2022/09/01 11:28:23;;;;;;;3.45;3.25;;;22.20;64.60;;;;;;5015522;28;20497;-63
2022/09/01 11:30:53;;;;;;;3.83;3.53;;;22.20;64.60;;;;;;5012963;28;20041;-62
2022/09/01 11:33:27;;;;;;;3.42;3.22;;;22.20;64.80;;;;;;5014433;28;20084;-63
2022/09/01 11:36:01;;;;;;;3.33;3.13;;;22.20;63.80;;;;;;5015779;28;20038;-63
2022/09/01 11:38:30;;;;;;;4.15;3.40;;;22.20;64.30;;;;;;5013640;28;20046;-63
2022/09/01 11:40:56;;;;;;;3.58;3.20;;;22.20;64.40;;;;;;5013063;28;20034;-63
2022/09/01 11:43:24;;;;;;;2.85;2.65;;;22.20;64.10;;;;;;5013675;28;20045;-63
2022/09/01 11:46:03;;;;;;;3.00;2.72;;;22.20;64.40;;;;;;5011611;28;20120;-63
2022/09/01 11:48:29;;;;;;;3.05;2.85;;;22.20;64.10;;;;;;5015794;28;20030;-62
2022/09/01 11:51:01;;;;;;;3.40;3.10;;;22.30;64.60;;;;;;5013323;28;20034;-62
2022/09/01 11:53:27;;;;;;;3.45;3.15;;;22.40;64.30;;;;;;5013885;28;20057;-63
2022/09/01 11:55:56;;;;;;;3.20;3.00;;;22.50;64.60;;;;;;5013500;28;20217;-62
2022/09/01 11:58:37;;;;;;;3.00;2.80;;;22.50;64.20;;;;;;5015406;28;20029;-63
2022/09/01 12:01:30;;;;;;;3.53;3.22;;;22.60;63.40;;;;;;5011137;28;20098;-63
2022/09/01 12:03:57;;;;;;;3.22;3.00;;;22.70;62.50;;;;;;5014997;28;20033;-63
2022/09/01 12:06:30;;;;;;;3.25;2.95;;;22.70;63.10;;;;;;5014475;28;20034;-63
2022/09/01 12:09:01;;;;;;;3.55;3.05;;;22.70;62.40;;;;;;5015292;28;20057;-63
2022/09/01 12:11:30;;;;;;;3.13;2.92;;;22.70;63.10;;;;;;5007005;28;20034;-62
2022/09/01 12:14:00;;;;;;;3.72;3.00;;;22.70;62.70;;;;;;5016006;28;20038;-63
2022/09/01 12:16:28;;;;;;;3.38;3.08;;;22.80;63.30;;;;;;5016834;28;20657;-63
2022/09/01 12:18:57;;;;;;;4.47;2.90;;;22.80;63.10;;;;;;5015901;28;20068;-63
2022/09/01 12:21:33;;;;;;;2.95;2.55;;;22.80;62.90;;;;;;5017042;28;20060;-63
2022/09/01 12:24:17;;;;;;;2.60;2.40;;;22.80;62.50;;;;;;5017154;28;20041;-63
2022/09/01 12:26:44;;;;;;;2.35;2.25;;;22.90;60.30;;;;;;5014313;28;20536;-63
2022/09/01 12:29:12;;;;;;;2.72;2.53;;;22.90;61.90;;;;;;5016897;28;20029;-62
2022/09/01 12:31:42;;;;;;;2.28;2.13;;;23.00;61.50;;;;;;5016433;28;20490;-63
2022/09/01 12:34:26;;;;;;;2.50;2.30;;;23.00;61.20;;;;;;5018107;28;20037;-63
2022/09/01 12:37:19;;;;;;;3.20;2.90;;;23.10;59.60;;;;;;5016051;28;20045;-63
2022/09/01 12:39:50;;;;;;;2.60;2.40;;;23.10;60.30;;;;;;5016616;28;20123;-62
2022/09/01 12:42:18;;;;;;;3.05;2.80;;;23.10;61.00;;;;;;5016424;28;20084;-63
2022/09/01 12:44:47;;;;;;;3.00;2.78;;;23.20;60.50;;;;;;5016778;28;20963;-63
2022/09/01 12:47:32;;;;;;;3.42;2.90;;;23.20;60.50;;;;;;5016611;28;20048;-62
2022/09/01 12:50:04;;;;;;;2.85;2.60;;;23.20;59.50;;;;;;5015263;28;20034;-61
2022/09/01 12:52:32;;;;;;;2.67;2.47;;;23.20;60.00;;;;;;5016468;28;20091;-63
2022/09/01 12:54:57;;;;;;;2.50;2.40;;;23.20;60.20;;;;;;5015316;28;20045;-63
2022/09/01 12:57:38;;;;;;;2.90;2.70;;;23.20;61.50;;;;;;5016538;28;20038;-63